San Francisco, California
Traffic Map
Current Weather Conditions
San Francisco, California
Few Clouds
Few Clouds
29°
Feels Like: 29°
Wind Chill: 29° Ceiling: Unl
Heat Index: 29° Visibility: 10mi
Dew Point: Wind: 9mph
Humidity: 26% Direction: 350° (N)
Pressure: 29.78in Gusts: 0mph
Raw Report DataKSFO 262156Z 35008KT 10SM FEW200 29/08 A2978 RMK AO2 SLP085 T02940078
Traffic Incident Summary
Active as of:
Severity:
Category:
InformationThere was an issue retrieving the traffic information for this location. Please try a different location or try again shortly.
Advertisements